createdAt,value
2023-02-13T00:00:50.282Z,103303.69
2023-02-13T00:05:47.076Z,103299.31
2023-02-13T00:10:43.821Z,103283.88
2023-02-13T00:15:40.554Z,103313.53
2023-02-13T00:20:38.054Z,103321.41
2023-02-13T00:25:34.909Z,103325.91
2023-02-13T00:30:31.961Z,103327.69
2023-02-13T00:35:28.675Z,103325.03
2023-02-13T00:40:26.199Z,103317.88
2023-02-13T00:45:22.800Z,103324.47
2023-02-13T00:50:19.730Z,103326.72
2023-02-13T00:55:16.382Z,103325.41
2023-02-13T01:00:14.693Z,103325.22
2023-02-13T01:05:11.783Z,103321.22
2023-02-13T01:10:08.721Z,103332.91
2023-02-13T01:15:05.785Z,103323.56
2023-02-13T01:20:03.146Z,103321.72
2023-02-13T01:24:59.782Z,103309.47
2023-02-13T01:30:00.592Z,103307.06
2023-02-13T01:34:57.287Z,103305.03
2023-02-13T01:39:55.803Z,103298.88
2023-02-13T01:44:53.569Z,103309.56
2023-02-13T01:49:53.042Z,103312.47
2023-02-13T01:54:49.729Z,103307.50
2023-02-13T01:59:49.384Z,103311.22
2023-02-13T02:04:47.146Z,103311.59
2023-02-13T02:09:47.966Z,103306.13
2023-02-13T02:14:45.962Z,103306.00
2023-02-13T02:19:49.385Z,103303.63
2023-02-13T02:25:00.913Z,103302.53
2023-02-13T02:30:27.521Z,103309.00
2023-02-13T02:35:29.768Z,103302.81
2023-02-13T02:40:32.781Z,103301.44
2023-02-13T02:45:35.057Z,103301.50
2023-02-13T02:50:37.553Z,103301.88
2023-02-13T02:55:38.810Z,103297.81
2023-02-13T03:00:56.047Z,103299.91
2023-02-13T03:06:09.870Z,103300.56
2023-02-13T03:11:24.956Z,103304.91
2023-02-13T03:16:42.661Z,103307.63
2023-02-13T03:22:09.458Z,103303.16
2023-02-13T03:27:08.665Z,103298.81
2023-02-13T03:32:09.912Z,103308.16
2023-02-13T03:37:28.251Z,103311.94
2023-02-13T03:42:28.556Z,103312.81
2023-02-13T03:47:26.006Z,103316.13
2023-02-13T03:52:26.389Z,103307.16
2023-02-13T03:57:42.341Z,103316.72
2023-02-13T04:02:41.420Z,103299.63
2023-02-13T04:07:38.758Z,103300.72
2023-02-13T04:12:37.800Z,103302.63
2023-02-13T04:17:36.879Z,103303.03
2023-02-13T04:22:33.508Z,103313.94
2023-02-13T04:27:30.932Z,103312.81
2023-02-13T04:32:32.694Z,103314.84
2023-02-13T04:37:29.453Z,103317.75
2023-02-13T04:42:26.356Z,103306.16
2023-02-13T04:47:23.870Z,103323.00
2023-02-13T04:52:20.755Z,103318.09
2023-02-13T04:57:19.576Z,103316.22
2023-02-13T05:02:16.328Z,103318.81
2023-02-13T05:07:13.747Z,103327.66
2023-02-13T05:12:10.655Z,103337.47
2023-02-13T05:17:08.817Z,103332.19
2023-02-13T05:22:23.653Z,103342.22
2023-02-13T05:27:23.205Z,103350.66
2023-02-13T05:32:20.081Z,103352.13
2023-02-13T05:37:17.046Z,103357.59
2023-02-13T05:42:15.725Z,103370.81
2023-02-13T05:47:13.172Z,103364.47
2023-02-13T05:52:10.018Z,103358.41
2023-02-13T05:57:06.934Z,103369.41
2023-02-13T06:02:04.180Z,103367.16
2023-02-13T06:07:01.854Z,103372.78
2023-02-13T06:12:00.157Z,103383.25
2023-02-13T06:17:03.768Z,103375.22
2023-02-13T06:22:06.411Z,103371.53
2023-02-13T06:27:03.838Z,103365.63
2023-02-13T06:32:01.153Z,103364.09
2023-02-13T06:36:58.155Z,103370.59
2023-02-13T06:41:58.594Z,103371.13
2023-02-13T06:46:56.198Z,103364.94
2023-02-13T06:51:56.279Z,103358.91
2023-02-13T06:56:52.987Z,103355.19
2023-02-13T07:01:52.930Z,103350.72
2023-02-13T07:06:59.269Z,103341.31
2023-02-13T07:11:56.149Z,103338.84
2023-02-13T07:16:53.803Z,103336.41
2023-02-13T07:21:53.450Z,103332.31
2023-02-13T07:26:50.618Z,103332.66
2023-02-13T07:31:48.768Z,103326.91
2023-02-13T07:36:59.298Z,103323.66
2023-02-13T08:08:12.213Z,103315.56
2023-02-13T08:27:19.282Z,103301.28
2023-02-13T09:38:02.588Z,103236.94
2023-02-13T10:26:47.308Z,103135.91
2023-02-13T10:31:48.453Z,103129.66
2023-02-13T10:36:48.643Z,103125.16
2023-02-13T10:41:51.164Z,103122.53
2023-02-13T10:46:55.698Z,103128.06
2023-02-13T10:51:58.662Z,103124.22
2023-02-13T10:56:58.300Z,103112.66
2023-02-13T11:02:00.413Z,103101.72
2023-02-13T11:06:59.477Z,103091.63
2023-02-13T11:11:58.921Z,103082.97
2023-02-13T11:16:58.216Z,103072.59
2023-02-13T11:21:56.459Z,103074.28
2023-02-13T11:26:55.091Z,103061.91
2023-02-13T11:32:03.081Z,103062.88
2023-02-13T11:37:30.102Z,103047.63
2023-02-13T11:42:29.556Z,103040.72
2023-02-13T11:47:39.772Z,103034.69
2023-02-13T11:52:37.297Z,103008.31
2023-02-13T11:57:41.331Z,103025.06
2023-02-13T12:02:50.986Z,103018.25
2023-02-13T12:07:48.467Z,103011.06
2023-02-13T12:12:51.521Z,103014.56
2023-02-13T12:18:00.444Z,103000.19
2023-02-13T12:23:03.516Z,102993.00
2023-02-13T12:28:09.283Z,103002.56
2023-02-13T12:33:16.406Z,103001.00
2023-02-13T12:38:25.023Z,102992.22
2023-02-13T12:43:29.666Z,102995.72
2023-02-13T12:48:33.497Z,102993.41
2023-02-13T12:53:43.025Z,102988.31
2023-02-13T12:59:03.071Z,102987.94
2023-02-13T13:04:09.781Z,102986.28
2023-02-13T13:09:13.742Z,102980.16
2023-02-13T13:14:14.180Z,102981.09
2023-02-13T13:24:40.306Z,102976.75
2023-02-13T13:29:43.253Z,102967.22
2023-02-13T13:34:40.894Z,102961.00
2023-02-13T13:39:43.946Z,102955.03
2023-02-13T13:44:47.305Z,102954.00
2023-02-13T13:49:48.713Z,102946.09
2023-02-13T13:54:51.159Z,102926.88
2023-02-13T14:00:01.649Z,102927.59
2023-02-13T14:05:57.286Z,102932.97
2023-02-13T14:11:05.751Z,102926.88
2023-02-13T14:16:03.844Z,102924.25
2023-02-13T14:21:01.684Z,102932.13
2023-02-13T14:26:19.616Z,102920.63
2023-02-13T14:31:21.895Z,102924.22
2023-02-13T14:36:21.174Z,102926.75
2023-02-13T14:41:36.803Z,102931.97
2023-02-13T14:46:37.539Z,102934.63
2023-02-13T14:51:59.550Z,102931.22
2023-02-13T14:57:01.244Z,102927.84
2023-02-13T15:01:59.946Z,102929.44
2023-02-13T15:07:00.348Z,102918.06
2023-02-13T15:11:57.855Z,102911.38
2023-02-13T15:17:00.256Z,102913.81
2023-02-13T15:21:59.203Z,102902.50
2023-02-13T15:27:00.031Z,102901.50
2023-02-13T15:31:57.402Z,102915.38
2023-02-13T15:36:54.564Z,102909.28
2023-02-13T15:41:53.150Z,102902.00
2023-02-13T15:46:51.612Z,102904.00
2023-02-13T15:51:49.015Z,102899.53
2023-02-13T15:56:46.397Z,102907.88
2023-02-13T16:01:44.027Z,102915.69
2023-02-13T16:06:43.262Z,102911.06
2023-02-13T16:11:43.950Z,102914.50
2023-02-13T16:16:53.026Z,102916.38
2023-02-13T16:21:57.796Z,102927.63
2023-02-13T16:26:57.877Z,102926.78
2023-02-13T16:32:15.727Z,102925.75
2023-02-13T16:37:32.650Z,102920.00
2023-02-13T16:42:31.491Z,102926.78
2023-02-13T16:47:30.264Z,102902.22
2023-02-13T16:52:28.210Z,102925.72
2023-02-13T16:57:26.735Z,102920.38
2023-02-13T17:02:27.344Z,102911.47
2023-02-13T17:07:36.919Z,102915.94
2023-02-13T17:12:37.053Z,102900.94
2023-02-13T17:17:34.210Z,102904.00
2023-02-13T17:22:34.591Z,102897.03
2023-02-13T17:27:48.656Z,102888.03
2023-02-13T17:32:46.615Z,102889.81
2023-02-13T17:37:44.382Z,102890.00
2023-02-13T17:42:43.621Z,102886.31
2023-02-13T17:47:40.388Z,102889.63
2023-02-13T17:52:40.319Z,102872.44
2023-02-13T17:57:40.360Z,102878.28
2023-02-13T18:02:37.279Z,102878.84
2023-02-13T18:07:34.270Z,102878.75
2023-02-13T18:12:31.593Z,102877.22
2023-02-13T18:18:30.369Z,102868.44
2023-02-13T18:23:35.146Z,102868.69
2023-02-13T18:28:35.350Z,102870.16
2023-02-13T18:33:32.400Z,102860.47
2023-02-13T18:38:39.419Z,102860.34
2023-02-13T18:43:36.548Z,102863.91
2023-02-13T18:48:34.935Z,102854.44
2023-02-13T18:53:31.999Z,102850.03
2023-02-13T18:58:29.540Z,102849.75
2023-02-13T19:03:26.472Z,102857.88
2023-02-13T19:08:26.350Z,102848.84
2023-02-13T19:13:26.229Z,102849.09
2023-02-13T19:18:23.767Z,102844.63
2023-02-13T19:23:20.968Z,102851.50
2023-02-13T19:28:18.243Z,102846.50
2023-02-13T19:33:15.462Z,102844.59
2023-02-13T19:38:13.021Z,102825.34
2023-02-13T19:43:12.909Z,102816.81
2023-02-13T19:48:09.744Z,102821.63
2023-02-13T19:53:09.058Z,102820.75
2023-02-13T19:58:08.729Z,102794.06
2023-02-13T20:03:05.604Z,102787.78
2023-02-13T20:08:02.435Z,102812.88
2023-02-13T20:13:03.517Z,102808.00
2023-02-13T20:18:01.215Z,102797.50
2023-02-13T20:22:58.069Z,102791.53
2023-02-13T20:27:55.122Z,102781.16
2023-02-13T20:32:52.302Z,102782.38
2023-02-13T20:37:50.742Z,102783.97
2023-02-13T20:42:49.854Z,102774.50
2023-02-13T20:47:49.648Z,102763.47
2023-02-13T20:52:46.703Z,102751.94
2023-02-13T20:58:01.906Z,102740.22
2023-02-13T21:03:05.888Z,102730.50
2023-02-13T21:08:02.688Z,102710.16
2023-02-13T21:13:01.682Z,102718.47
2023-02-13T21:18:01.154Z,102712.22
2023-02-13T21:23:01.211Z,102703.78
2023-02-13T21:27:59.312Z,102700.34
2023-02-13T21:32:56.218Z,102702.19
2023-02-13T21:37:53.608Z,102705.78
2023-02-13T21:42:51.743Z,102716.44
2023-02-13T21:47:50.126Z,102711.41
2023-02-13T21:52:46.838Z,102707.25
2023-02-13T21:57:44.066Z,102700.09
2023-02-13T22:02:41.092Z,102729.75
2023-02-13T22:07:52.594Z,102734.72
2023-02-13T22:12:53.221Z,102741.63
2023-02-13T22:17:49.945Z,102743.66
2023-02-13T22:22:46.602Z,102727.84
2023-02-13T22:27:45.620Z,102729.81
2023-02-13T22:32:43.069Z,102734.94
2023-02-13T22:37:39.692Z,102738.34
2023-02-13T22:42:36.474Z,102731.09
2023-02-13T22:47:33.270Z,102726.75
2023-02-13T22:52:31.122Z,102723.81
2023-02-13T22:57:27.851Z,102726.19
2023-02-13T23:02:30.616Z,102719.47
2023-02-13T23:07:27.562Z,102736.50
2023-02-13T23:12:38.263Z,102734.41
2023-02-13T23:18:04.768Z,102730.00
2023-02-13T23:23:02.686Z,102732.59
2023-02-13T23:28:03.587Z,102731.50
2023-02-13T23:33:03.541Z,102704.31
2023-02-13T23:38:00.606Z,102720.16
2023-02-13T23:42:57.285Z,102725.94
2023-02-13T23:47:54.727Z,102712.00
2023-02-13T23:52:51.422Z,102714.91
2023-02-13T23:57:51.455Z,102712.78
